Time;durP1;ratioP1;P1;durP2;ratioP2;P2;SDS_P1;SDS_P2;PMS_P1;PMS_P2;Temp;Humidity;BMP_temperature;BMP_pressure;BME280_temperature;BME280_humidity;BME280_pressure;Samples;Min_cycle;Max_cycle;Signal;HPM_P1;HPM_P2
2022/02/28 00:00:53;;;;;;;17.00;6.90;;;-1.70;99.90;;;;;;4441039;32;20229;-71
2022/02/28 00:03:20;;;;;;;14.70;6.67;;;-1.70;99.90;;;;;;4455998;32;20157;-72
2022/02/28 00:05:47;;;;;;;17.57;7.27;;;-1.70;99.90;;;;;;4440419;32;20178;-71
2022/02/28 00:08:14;;;;;;;16.50;6.67;;;-1.70;99.90;;;;;;4454477;32;20161;-71
2022/02/28 00:10:41;;;;;;;14.63;7.00;;;-1.80;99.90;;;;;;4428857;32;20246;-72
2022/02/28 00:13:09;;;;;;;16.37;7.13;;;-1.80;99.90;;;;;;4440259;32;20273;-71
2022/02/28 00:15:37;;;;;;;15.70;6.97;;;-1.80;99.90;;;;;;4441437;32;20268;-72
2022/02/28 00:18:03;;;;;;;13.70;7.17;;;-1.80;99.90;;;;;;4441501;32;20233;-71
2022/02/28 00:20:30;;;;;;;17.53;7.10;;;-1.90;99.90;;;;;;4449975;32;20430;-71
2022/02/28 00:22:57;;;;;;;16.23;6.93;;;-1.90;99.90;;;;;;4448489;32;20394;-72
2022/02/28 00:25:24;;;;;;;15.47;7.13;;;-1.90;99.90;;;;;;4440066;32;20211;-72
2022/02/28 00:27:51;;;;;;;16.83;7.47;;;-1.90;99.90;;;;;;4437108;32;20178;-71
2022/02/28 00:30:18;;;;;;;13.23;6.73;;;-1.90;99.90;;;;;;4428933;32;20198;-72
2022/02/28 00:32:45;;;;;;;15.80;6.90;;;-1.90;99.90;;;;;;4427201;32;20500;-72
2022/02/28 00:35:12;;;;;;;13.87;7.30;;;-1.90;99.90;;;;;;4442145;32;20403;-71
2022/02/28 00:37:39;;;;;;;13.50;7.00;;;-1.90;99.90;;;;;;4441717;32;20173;-71
2022/02/28 00:40:07;;;;;;;15.43;6.97;;;-1.90;99.90;;;;;;4443237;32;20142;-71
2022/02/28 00:42:37;;;;;;;13.97;7.60;;;-1.90;99.90;;;;;;4426997;32;20209;-71
2022/02/28 00:45:05;;;;;;;14.27;6.90;;;-2.00;99.90;;;;;;4426955;32;20202;-73
2022/02/28 00:47:32;;;;;;;15.77;7.60;;;-2.00;99.90;;;;;;4427324;32;20221;-73
2022/02/28 00:49:59;;;;;;;14.47;7.10;;;-2.00;99.90;;;;;;4429153;32;20249;-71
2022/02/28 00:52:25;;;;;;;16.90;7.03;;;-1.90;99.90;;;;;;4442309;32;20177;-72
2022/02/28 00:54:52;;;;;;;15.83;7.37;;;-2.00;99.90;;;;;;4442747;32;20193;-72
2022/02/28 00:57:19;;;;;;;17.47;7.30;;;-2.00;99.90;;;;;;4429141;32;20205;-72
2022/02/28 00:59:46;;;;;;;17.40;7.20;;;-2.00;99.90;;;;;;4427432;32;20197;-72
2022/02/28 01:02:13;;;;;;;13.90;7.23;;;-2.00;99.90;;;;;;4428560;32;20592;-72
2022/02/28 01:04:43;;;;;;;14.53;6.97;;;-2.00;99.90;;;;;;4415159;32;20213;-71
2022/02/28 01:07:10;;;;;;;17.70;7.53;;;-2.10;99.90;;;;;;4428925;32;20189;-71
2022/02/28 01:09:37;;;;;;;16.20;6.93;;;-2.10;99.90;;;;;;4429020;32;20197;-72
2022/02/28 01:12:07;;;;;;;15.80;7.30;;;-2.10;99.90;;;;;;4427042;32;20283;-71
2022/02/28 01:14:35;;;;;;;16.27;7.40;;;-2.10;99.90;;;;;;4428254;32;20242;-72
2022/02/28 01:17:02;;;;;;;13.83;7.23;;;-2.10;99.90;;;;;;4428362;32;20212;-72
2022/02/28 01:19:29;;;;;;;16.30;7.30;;;-2.10;99.90;;;;;;4426789;32;20245;-71
2022/02/28 01:21:56;;;;;;;15.07;7.00;;;-2.10;99.90;;;;;;4441222;32;20511;-72
2022/02/28 01:24:23;;;;;;;17.03;7.53;;;-2.20;99.90;;;;;;4427321;32;20209;-73
2022/02/28 01:26:50;;;;;;;16.40;7.27;;;-2.20;99.90;;;;;;4426926;32;20423;-72
2022/02/28 01:29:17;;;;;;;17.20;8.00;;;-2.20;99.90;;;;;;4426415;32;20214;-72
2022/02/28 01:31:44;;;;;;;15.03;6.83;;;-2.20;99.90;;;;;;4427600;32;20193;-73
2022/02/28 01:34:11;;;;;;;18.83;7.93;;;-2.20;99.90;;;;;;4440694;32;20159;-72
2022/02/28 01:36:38;;;;;;;16.17;7.27;;;-2.20;99.90;;;;;;4427810;32;20217;-72
2022/02/28 01:39:05;;;;;;;17.03;7.80;;;-2.20;99.90;;;;;;4426459;32;20227;-73
2022/02/28 01:41:32;;;;;;;18.20;7.30;;;-2.30;99.90;;;;;;4427010;32;20360;-73
2022/02/28 01:43:58;;;;;;;16.93;7.27;;;-2.30;99.90;;;;;;4440967;32;20204;-73
2022/02/28 01:46:25;;;;;;;15.53;7.60;;;-2.30;99.90;;;;;;4442163;32;20201;-74
2022/02/28 01:48:52;;;;;;;14.73;7.60;;;-2.30;99.90;;;;;;4426586;32;20259;-73
2022/02/28 01:51:19;;;;;;;15.70;7.47;;;-2.30;99.90;;;;;;4440997;32;20189;-72
2022/02/28 01:53:47;;;;;;;16.40;7.40;;;-2.30;99.90;;;;;;4442135;32;20486;-73
2022/02/28 01:56:14;;;;;;;19.10;7.60;;;-2.30;99.90;;;;;;4427631;32;20229;-73
2022/02/28 01:58:41;;;;;;;19.37;7.87;;;-2.40;99.90;;;;;;4440339;32;20152;-73
2022/02/28 02:01:08;;;;;;;15.07;6.97;;;-2.40;99.90;;;;;;4428076;32;20237;-73
2022/02/28 02:03:36;;;;;;;16.37;7.47;;;-2.40;99.90;;;;;;4426777;32;20174;-73
2022/02/28 02:06:07;;;;;;;15.77;7.23;;;-2.40;99.90;;;;;;4440525;32;20159;-73
2022/02/28 02:08:34;;;;;;;17.40;7.93;;;-2.40;99.90;;;;;;4428301;32;20202;-73
2022/02/28 02:11:03;;;;;;;16.67;7.40;;;-2.40;99.90;;;;;;4428648;32;20463;-73
2022/02/28 02:13:31;;;;;;;15.20;7.13;;;-2.40;99.90;;;;;;4439949;32;20193;-73
2022/02/28 02:15:59;;;;;;;16.93;7.70;;;-2.40;99.90;;;;;;4440116;32;20166;-73
2022/02/28 02:18:27;;;;;;;16.50;7.53;;;-2.50;99.90;;;;;;4439932;32;20220;-73
2022/02/28 02:20:53;;;;;;;18.47;8.07;;;-2.40;99.90;;;;;;4425953;32;20208;-73
2022/02/28 02:23:27;;;;;;;16.67;7.40;;;-2.40;99.90;;;;;;4425491;32;20198;-73
2022/02/28 02:25:57;;;;;;;15.43;7.43;;;-2.50;99.90;;;;;;4427303;32;20209;-73
2022/02/28 02:28:24;;;;;;;17.17;7.30;;;-2.50;99.90;;;;;;4426088;32;20246;-73
2022/02/28 02:30:56;;;;;;;15.97;7.57;;;-2.50;99.90;;;;;;4427492;32;20193;-73
2022/02/28 02:33:24;;;;;;;17.73;7.33;;;-2.50;99.90;;;;;;4440695;32;20207;-73
2022/02/28 02:35:54;;;;;;;18.20;7.50;;;-2.50;99.90;;;;;;4426257;32;20190;-73
2022/02/28 02:38:21;;;;;;;15.67;6.90;;;-2.50;99.90;;;;;;4427715;32;20228;-73
2022/02/28 02:40:48;;;;;;;21.63;8.03;;;-2.60;99.90;;;;;;4425481;32;20455;-72
2022/02/28 02:43:15;;;;;;;15.83;7.70;;;-2.60;99.90;;;;;;4440974;32;20193;-73
2022/02/28 02:45:43;;;;;;;14.33;7.20;;;-2.60;99.90;;;;;;4440153;32;20276;-73
2022/02/28 02:48:21;;;;;;;13.93;6.97;;;-2.60;99.90;;;;;;4441063;32;20170;-73
2022/02/28 02:50:49;;;;;;;17.20;7.83;;;-2.70;99.90;;;;;;4425563;32;20179;-73
2022/02/28 02:53:16;;;;;;;18.13;7.50;;;-2.70;99.90;;;;;;4440745;32;20208;-73
2022/02/28 02:55:44;;;;;;;14.80;6.93;;;-2.70;99.90;;;;;;4440926;32;20147;-73
2022/02/28 02:58:14;;;;;;;15.73;7.23;;;-2.70;99.90;;;;;;4425466;32;20210;-73
2022/02/28 03:00:42;;;;;;;16.53;7.03;;;-2.70;99.90;;;;;;4426275;32;20584;-73
2022/02/28 03:03:11;;;;;;;14.13;6.90;;;-2.70;99.90;;;;;;4439836;32;20174;-73
2022/02/28 03:05:38;;;;;;;16.60;7.20;;;-2.70;99.90;;;;;;4439962;32;20400;-73
2022/02/28 03:08:05;;;;;;;19.87;7.73;;;-2.70;99.90;;;;;;4439874;32;20506;-73
2022/02/28 03:10:32;;;;;;;16.13;6.77;;;-2.70;99.90;;;;;;4426984;32;20249;-73
2022/02/28 03:12:59;;;;;;;16.63;6.90;;;-2.70;99.90;;;;;;4439262;32;20179;-73
2022/02/28 03:15:26;;;;;;;15.63;7.77;;;-2.70;99.90;;;;;;4427159;32;20213;-73
2022/02/28 03:17:53;;;;;;;14.83;7.23;;;-2.70;99.90;;;;;;4427072;32;20178;-73
2022/02/28 03:20:20;;;;;;;14.17;7.17;;;-2.80;99.90;;;;;;4426803;32;20225;-72
2022/02/28 03:22:47;;;;;;;18.27;7.50;;;-2.80;99.90;;;;;;4426711;32;20182;-73
2022/02/28 03:25:14;;;;;;;18.00;7.63;;;-2.80;99.90;;;;;;4426309;32;20204;-73
2022/02/28 03:27:41;;;;;;;16.67;7.13;;;-2.80;99.90;;;;;;4426141;32;20387;-72
2022/02/28 03:30:09;;;;;;;17.17;7.03;;;-2.80;99.90;;;;;;4426746;32;20185;-72
2022/02/28 03:32:36;;;;;;;15.87;7.03;;;-2.80;99.90;;;;;;4426040;32;20244;-72
2022/02/28 03:35:04;;;;;;;16.20;7.07;;;-2.80;99.90;;;;;;4441042;32;20179;-72
2022/02/28 03:37:31;;;;;;;14.87;7.07;;;-2.90;99.90;;;;;;4426980;32;20189;-74
2022/02/28 03:39:58;;;;;;;13.80;6.70;;;-2.90;99.90;;;;;;4425410;32;20204;-74
2022/02/28 03:42:24;;;;;;;16.43;6.90;;;-2.90;99.90;;;;;;4424750;32;20183;-73
2022/02/28 03:44:51;;;;;;;17.33;7.67;;;-2.90;99.90;;;;;;4425116;32;20194;-74
2022/02/28 03:47:18;;;;;;;14.93;7.60;;;-2.90;99.90;;;;;;4424831;32;20203;-73
2022/02/28 03:49:45;;;;;;;15.47;6.70;;;-3.00;99.90;;;;;;4438978;32;20170;-73
2022/02/28 03:52:12;;;;;;;18.20;7.90;;;-3.00;99.90;;;;;;4439335;32;20190;-74
2022/02/28 03:54:38;;;;;;;14.07;6.60;;;-3.10;99.90;;;;;;4425935;32;20201;-74
2022/02/28 03:57:05;;;;;;;18.37;8.00;;;-3.00;99.90;;;;;;4441205;32;20146;-74
2022/02/28 03:59:32;;;;;;;15.47;7.60;;;-3.00;99.90;;;;;;4425416;32;20226;-74
2022/02/28 04:01:59;;;;;;;16.77;6.80;;;-3.10;99.90;;;;;;4441985;32;20530;-74
2022/02/28 04:04:26;;;;;;;14.97;7.47;;;-3.10;99.90;;;;;;4428343;32;20192;-74
2022/02/28 04:06:53;;;;;;;14.80;6.77;;;-3.10;99.90;;;;;;4429581;32;20198;-73
2022/02/28 04:09:20;;;;;;;17.63;7.43;;;-3.10;99.90;;;;;;4427906;32;20202;-74
2022/02/28 04:11:47;;;;;;;17.97;7.47;;;-3.10;99.90;;;;;;4442508;32;20446;-74
2022/02/28 04:14:14;;;;;;;15.37;7.60;;;-3.10;99.90;;;;;;4443490;32;20150;-75
2022/02/28 04:16:41;;;;;;;20.60;7.63;;;-3.10;99.90;;;;;;4429352;32;20182;-74
2022/02/28 04:19:08;;;;;;;16.00;7.40;;;-3.10;99.90;;;;;;4428485;32;20174;-73
2022/02/28 04:21:35;;;;;;;17.20;7.90;;;-3.20;99.90;;;;;;4442293;32;20217;-75
2022/02/28 04:24:02;;;;;;;16.77;7.93;;;-3.20;99.90;;;;;;4441575;32;20185;-75
2022/02/28 04:26:29;;;;;;;18.70;8.13;;;-3.20;99.90;;;;;;4443438;32;20151;-75
2022/02/28 04:28:56;;;;;;;17.03;7.57;;;-3.30;99.90;;;;;;4429147;32;20523;-75
2022/02/28 04:31:23;;;;;;;18.00;7.67;;;-3.30;99.90;;;;;;4441955;32;20466;-75
2022/02/28 04:33:50;;;;;;;17.07;7.50;;;-3.30;99.90;;;;;;4427109;32;20197;-75
2022/02/28 04:36:17;;;;;;;16.27;7.37;;;-3.30;99.90;;;;;;4429282;32;20237;-75
2022/02/28 04:38:46;;;;;;;19.87;7.80;;;-3.40;99.90;;;;;;4427187;32;20205;-75
2022/02/28 04:41:13;;;;;;;14.43;7.17;;;-3.30;99.90;;;;;;4441680;32;20405;-75
2022/02/28 04:43:40;;;;;;;17.33;8.00;;;-3.30;99.90;;;;;;4427651;32;20190;-72
2022/02/28 04:46:06;;;;;;;16.70;7.60;;;-3.30;99.90;;;;;;4428086;32;20211;-73
2022/02/28 04:48:33;;;;;;;14.83;7.07;;;-3.30;99.90;;;;;;4428878;32;20211;-74
2022/02/28 04:51:00;;;;;;;16.90;7.97;;;-3.30;99.90;;;;;;4443521;32;20167;-73
2022/02/28 04:53:27;;;;;;;17.20;8.00;;;-3.40;99.90;;;;;;4414283;32;20233;-73
2022/02/28 04:55:54;;;;;;;17.50;7.70;;;-3.40;99.90;;;;;;4428673;32;20584;-74
2022/02/28 04:58:21;;;;;;;15.47;7.50;;;-3.40;99.90;;;;;;4442815;32;20143;-73
2022/02/28 05:00:48;;;;;;;15.63;7.20;;;-3.40;99.90;;;;;;4427864;32;20197;-73
2022/02/28 05:03:15;;;;;;;19.70;7.30;;;-3.40;99.90;;;;;;4441164;32;20161;-73
2022/02/28 05:05:43;;;;;;;15.33;6.90;;;-3.50;99.90;;;;;;4428915;32;20166;-74
2022/02/28 05:08:09;;;;;;;15.10;7.53;;;-3.50;99.90;;;;;;4428848;32;20190;-74
2022/02/28 05:10:37;;;;;;;17.87;7.60;;;-3.50;99.90;;;;;;4428119;32;20226;-73
2022/02/28 05:13:05;;;;;;;14.90;6.90;;;-3.50;99.90;;;;;;4441275;32;20160;-73
2022/02/28 05:15:32;;;;;;;13.97;7.10;;;-3.50;99.90;;;;;;4428318;32;20493;-73
2022/02/28 05:17:59;;;;;;;18.90;7.47;;;-3.60;99.90;;;;;;4442572;32;20180;-73
2022/02/28 05:20:25;;;;;;;15.87;7.30;;;-3.60;99.90;;;;;;4428565;32;20171;-74
2022/02/28 05:22:52;;;;;;;15.97;6.53;;;-3.60;99.90;;;;;;4428049;32;20198;-73
2022/02/28 05:25:19;;;;;;;16.53;7.03;;;-3.60;99.90;;;;;;4428768;32;20170;-73
2022/02/28 05:27:47;;;;;;;17.40;7.20;;;-3.70;99.90;;;;;;4427532;32;20229;-73
2022/02/28 05:30:15;;;;;;;17.33;7.30;;;-3.70;99.90;;;;;;4426418;32;20482;-73
2022/02/28 05:32:42;;;;;;;15.80;7.03;;;-3.70;99.90;;;;;;4426748;32;20178;-72
2022/02/28 05:35:11;;;;;;;13.67;6.47;;;-3.70;99.90;;;;;;4440883;32;20179;-73
2022/02/28 05:37:39;;;;;;;15.07;6.80;;;-3.60;99.90;;;;;;4427895;32;20554;-73
2022/02/28 05:40:09;;;;;;;13.53;6.50;;;-3.60;99.90;;;;;;4426443;32;20467;-73
2022/02/28 05:42:37;;;;;;;14.37;6.77;;;-3.60;99.90;;;;;;4440441;32;20188;-73
2022/02/28 05:45:08;;;;;;;13.73;6.53;;;-3.70;99.90;;;;;;4426551;32;20197;-73
2022/02/28 05:47:35;;;;;;;11.50;5.83;;;-3.60;99.90;;;;;;4428125;32;20180;-75
2022/02/28 05:50:03;;;;;;;16.10;7.17;;;-3.60;99.90;;;;;;4427922;32;20190;-76
2022/02/28 05:52:29;;;;;;;20.43;7.13;;;-3.60;99.90;;;;;;4432727;32;20186;-75
2022/02/28 05:54:56;;;;;;;17.03;7.47;;;-3.60;99.90;;;;;;4435489;32;20205;-74
2022/02/28 05:57:23;;;;;;;13.47;6.33;;;-3.50;99.90;;;;;;4426366;32;20244;-74
2022/02/28 05:59:50;;;;;;;14.13;6.60;;;-3.50;99.90;;;;;;4426477;32;20226;-74
2022/02/28 06:02:17;;;;;;;13.07;6.93;;;-3.50;99.90;;;;;;4426861;32;20209;-74
2022/02/28 06:04:44;;;;;;;14.07;6.67;;;-3.50;99.90;;;;;;4441104;32;20163;-74
2022/02/28 06:07:13;;;;;;;12.70;6.27;;;-3.40;99.90;;;;;;4425815;32;20223;-74
2022/02/28 06:09:39;;;;;;;14.03;6.37;;;-3.40;99.90;;;;;;4425961;32;20525;-74
2022/02/28 06:12:08;;;;;;;14.13;6.13;;;-3.40;99.90;;;;;;4431613;32;20445;-72
2022/02/28 06:14:35;;;;;;;14.13;6.00;;;-3.30;99.90;;;;;;4426828;32;20586;-73
2022/02/28 06:17:03;;;;;;;14.17;6.13;;;-3.30;99.90;;;;;;4439610;32;20472;-73
2022/02/28 06:19:29;;;;;;;12.47;6.37;;;-3.30;99.90;;;;;;4440641;32;20151;-73
2022/02/28 06:21:58;;;;;;;11.70;5.97;;;-3.20;99.90;;;;;;4426102;32;20192;-73
2022/02/28 06:24:25;;;;;;;12.63;6.20;;;-3.20;99.90;;;;;;4426045;32;20194;-73
2022/02/28 06:26:53;;;;;;;13.17;7.10;;;-3.10;99.90;;;;;;4426157;32;20436;-74
2022/02/28 06:29:20;;;;;;;13.17;6.03;;;-3.00;99.90;;;;;;4426994;32;20169;-73
2022/02/28 06:31:47;;;;;;;13.83;6.10;;;-3.00;99.90;;;;;;4425142;32;20229;-73
2022/02/28 06:34:14;;;;;;;14.17;5.80;;;-2.80;99.90;;;;;;4425609;32;20176;-73
2022/02/28 06:36:42;;;;;;;12.70;6.20;;;-2.70;99.90;;;;;;4427284;32;20437;-73
2022/02/28 06:39:09;;;;;;;11.40;5.10;;;-2.70;99.90;;;;;;4426884;32;20521;-73
2022/02/28 06:41:37;;;;;;;10.93;5.57;;;-2.60;99.90;;;;;;4441277;32;20143;-72
2022/02/28 06:44:05;;;;;;;12.60;5.90;;;-2.50;99.90;;;;;;4439691;32;20261;-72
2022/02/28 06:46:33;;;;;;;16.57;6.00;;;-2.50;99.90;;;;;;4426445;32;20248;-73
2022/02/28 06:49:00;;;;;;;13.20;5.57;;;-2.50;99.90;;;;;;4425309;32;20216;-74
2022/02/28 06:51:28;;;;;;;11.13;5.70;;;-2.40;99.90;;;;;;4413188;32;20229;-73
2022/02/28 06:53:54;;;;;;;13.70;6.03;;;-2.40;99.90;;;;;;4441304;32;20142;-73
2022/02/28 06:56:22;;;;;;;12.43;5.73;;;-2.30;99.90;;;;;;4425453;32;20200;-74
2022/02/28 06:58:48;;;;;;;10.13;5.17;;;-2.20;99.90;;;;;;4425779;32;20211;-73
2022/02/28 07:01:15;;;;;;;12.53;5.77;;;-2.20;99.90;;;;;;4439706;32;20168;-73
2022/02/28 07:03:43;;;;;;;10.80;5.17;;;-2.20;99.90;;;;;;4425019;32;20603;-73
2022/02/28 07:06:11;;;;;;;11.20;5.37;;;-2.00;99.90;;;;;;4426655;32;20216;-73
2022/02/28 07:08:39;;;;;;;10.80;5.60;;;-2.00;99.90;;;;;;4426295;32;20197;-72
2022/02/28 07:11:07;;;;;;;11.80;5.00;;;-2.00;99.90;;;;;;4413698;32;20189;-72
2022/02/28 07:13:34;;;;;;;11.30;5.27;;;-1.90;99.90;;;;;;4425371;32;20428;-73
2022/02/28 07:16:01;;;;;;;10.77;5.07;;;-1.90;99.90;;;;;;4448204;32;20173;-72
2022/02/28 07:18:28;;;;;;;10.60;4.90;;;-1.90;99.90;;;;;;4440660;32;20220;-73
2022/02/28 07:20:56;;;;;;;13.90;4.70;;;-1.80;99.90;;;;;;4440423;32;20236;-73
2022/02/28 07:23:23;;;;;;;9.50;4.40;;;-1.60;99.90;;;;;;4454899;32;20177;-73
2022/02/28 07:25:51;;;;;;;13.20;5.17;;;-1.60;99.90;;;;;;4442016;32;20507;-72
2022/02/28 07:28:18;;;;;;;9.57;5.10;;;-1.40;99.90;;;;;;4441178;32;20201;-73
2022/02/28 07:30:45;;;;;;;11.27;4.73;;;-1.40;99.90;;;;;;4454968;32;20143;-74
2022/02/28 07:33:12;;;;;;;10.80;5.30;;;-1.30;99.90;;;;;;4441010;32;20201;-73
2022/02/28 07:35:39;;;;;;;8.37;4.67;;;-1.20;99.90;;;;;;4458018;32;20149;-75
2022/02/28 07:38:06;;;;;;;9.87;4.90;;;-1.10;99.90;;;;;;4444956;32;20174;-72
2022/02/28 07:40:33;;;;;;;9.20;4.80;;;-1.10;99.90;;;;;;4443635;32;20212;-72
2022/02/28 07:43:00;;;;;;;12.37;5.03;;;-1.10;99.90;;;;;;4457275;32;20197;-74
2022/02/28 07:45:27;;;;;;;9.97;4.87;;;-1.00;99.90;;;;;;4443060;32;20181;-73
2022/02/28 07:47:54;;;;;;;11.43;5.20;;;-0.90;99.90;;;;;;4458988;32;20407;-72
2022/02/28 07:50:21;;;;;;;11.30;5.27;;;-0.90;99.90;;;;;;4459305;32;20418;-73
2022/02/28 07:52:48;;;;;;;8.97;4.53;;;-0.80;99.90;;;;;;4445049;32;20270;-71
2022/02/28 07:55:14;;;;;;;13.60;5.07;;;-0.70;99.90;;;;;;4444610;32;20208;-72
2022/02/28 07:57:41;;;;;;;11.13;4.67;;;-0.60;99.90;;;;;;4457200;32;20143;-73
2022/02/28 08:00:10;;;;;;;9.80;4.73;;;-0.60;99.90;;;;;;4457850;32;20178;-73
2022/02/28 08:02:37;;;;;;;11.33;4.80;;;-0.50;99.90;;;;;;4444404;32;20189;-72
2022/02/28 08:05:04;;;;;;;7.93;4.40;;;-0.40;99.90;;;;;;4444084;32;20183;-73
2022/02/28 08:07:31;;;;;;;8.50;4.60;;;-0.30;99.90;;;;;;4443340;32;20228;-74
2022/02/28 08:09:58;;;;;;;9.77;4.73;;;-0.20;99.90;;;;;;4444653;32;20268;-73
2022/02/28 08:12:25;;;;;;;9.07;4.80;;;-0.10;99.90;;;;;;4444374;32;20588;-73
2022/02/28 08:14:52;;;;;;;9.87;4.47;;;0.00;99.90;;;;;;4451785;32;20188;-72
2022/02/28 08:17:19;;;;;;;9.50;4.57;;;0.10;99.90;;;;;;4458624;32;20167;-72
2022/02/28 08:19:46;;;;;;;9.40;4.20;;;0.60;99.90;;;;;;4453281;32;20173;-73
2022/02/28 08:22:12;;;;;;;11.20;4.53;;;1.30;99.90;;;;;;4435725;32;20198;-73
2022/02/28 08:24:39;;;;;;;10.60;4.40;;;1.90;99.90;;;;;;4428005;32;20196;-73
2022/02/28 08:27:06;;;;;;;10.37;4.60;;;2.30;99.90;;;;;;4429072;32;20205;-74
2022/02/28 08:29:33;;;;;;;11.73;4.13;;;2.60;99.90;;;;;;4428969;32;20190;-72
2022/02/28 08:32:00;;;;;;;10.30;4.53;;;2.90;99.90;;;;;;4443156;32;20154;-74
2022/02/28 08:34:27;;;;;;;7.40;4.00;;;3.30;99.90;;;;;;4427754;32;20436;-71
2022/02/28 08:36:54;;;;;;;8.10;4.23;;;3.70;99.90;;;;;;4428998;32;20253;-71
2022/02/28 08:39:22;;;;;;;8.03;3.70;;;4.00;99.90;;;;;;4427037;32;20190;-74
2022/02/28 08:41:48;;;;;;;8.23;4.20;;;4.30;99.90;;;;;;4427531;32;20213;-74
2022/02/28 08:44:15;;;;;;;8.40;4.27;;;4.50;99.90;;;;;;4428609;32;20183;-70
2022/02/28 08:46:43;;;;;;;7.07;3.70;;;4.80;99.90;;;;;;4441471;32;20469;-74
2022/02/28 08:49:10;;;;;;;7.23;4.07;;;4.90;99.90;;;;;;4427821;32;20244;-71
2022/02/28 08:51:38;;;;;;;10.97;4.00;;;5.20;99.90;;;;;;4441683;32;20426;-72
2022/02/28 08:54:05;;;;;;;10.37;3.93;;;5.50;99.90;;;;;;4441277;32;20195;-75
2022/02/28 08:56:32;;;;;;;9.93;3.90;;;5.50;99.90;;;;;;4441417;32;20209;-73
2022/02/28 08:58:59;;;;;;;7.10;3.73;;;5.60;99.90;;;;;;4426795;32;20262;-74
2022/02/28 09:01:26;;;;;;;11.07;4.10;;;5.60;99.90;;;;;;4442714;32;20154;-74
2022/02/28 09:03:53;;;;;;;6.47;3.27;;;5.90;99.90;;;;;;4427465;32;20201;-74
2022/02/28 09:06:22;;;;;;;8.30;3.87;;;6.20;99.90;;;;;;4429266;32;20196;-73
2022/02/28 09:08:49;;;;;;;8.67;3.67;;;6.40;99.90;;;;;;4434950;32;20543;-72
2022/02/28 09:11:16;;;;;;;7.50;3.50;;;6.70;99.90;;;;;;4427105;32;20224;-72
2022/02/28 09:13:43;;;;;;;9.27;3.70;;;7.00;99.90;;;;;;4426556;32;20244;-73
2022/02/28 09:16:10;;;;;;;7.37;4.00;;;7.10;99.20;;;;;;4427948;32;20213;-73
2022/02/28 09:18:37;;;;;;;7.70;3.57;;;7.10;97.90;;;;;;4428618;32;20446;-73
2022/02/28 09:21:04;;;;;;;8.13;3.77;;;7.40;96.70;;;;;;4414789;32;20197;-73
2022/02/28 09:23:30;;;;;;;7.80;3.70;;;7.60;95.40;;;;;;4442315;32;20399;-73
2022/02/28 09:25:58;;;;;;;7.20;3.57;;;7.90;94.40;;;;;;4427649;32;20455;-73
2022/02/28 09:28:25;;;;;;;7.20;3.50;;;8.30;92.90;;;;;;4428284;32;20202;-72
2022/02/28 09:30:53;;;;;;;9.23;3.57;;;8.10;91.70;;;;;;4428049;32;20174;-76
2022/02/28 09:33:20;;;;;;;7.37;3.57;;;8.30;90.90;;;;;;4453708;32;20229;-74
2022/02/28 09:35:47;;;;;;;6.73;3.60;;;8.50;88.90;;;;;;4443933;32;20201;-75
2022/02/28 09:38:15;;;;;;;7.13;3.40;;;8.80;85.70;;;;;;4456938;32;20169;-74
2022/02/28 09:40:46;;;;;;;5.90;3.07;;;8.70;84.90;;;;;;4442818;32;20472;-72
2022/02/28 09:43:14;;;;;;;6.07;3.10;;;8.80;81.70;;;;;;4441414;32;20478;-72
2022/02/28 09:45:41;;;;;;;4.27;2.93;;;8.90;80.60;;;;;;4443514;32;20212;-71
2022/02/28 09:48:09;;;;;;;6.77;3.10;;;9.10;78.40;;;;;;4441231;32;20237;-70
2022/02/28 09:50:36;;;;;;;5.37;2.97;;;9.50;75.60;;;;;;4441405;32;20244;-71
2022/02/28 09:53:06;;;;;;;6.33;3.10;;;9.80;73.00;;;;;;4437864;32;20571;-68
2022/02/28 09:55:33;;;;;;;6.27;2.90;;;10.10;71.20;;;;;;4430422;32;20178;-70
2022/02/28 09:58:00;;;;;;;7.77;3.30;;;10.30;67.50;;;;;;4441263;32;20151;-69
2022/02/28 10:00:28;;;;;;;8.53;3.23;;;10.40;67.20;;;;;;4426603;32;20167;-69
2022/02/28 10:02:57;;;;;;;5.87;2.83;;;10.70;66.20;;;;;;4427594;32;20185;-71
2022/02/28 10:05:25;;;;;;;7.07;2.90;;;11.10;66.20;;;;;;4441587;32;20173;-70
2022/02/28 10:08:01;;;;;;;9.10;2.87;;;11.40;62.10;;;;;;4425721;32;20194;-70
2022/02/28 10:10:28;;;;;;;4.83;2.43;;;11.80;60.40;;;;;;4425644;32;20569;-70
2022/02/28 10:12:55;;;;;;;6.33;2.77;;;12.00;58.30;;;;;;4426878;32;20194;-70
2022/02/28 10:15:25;;;;;;;5.90;2.70;;;11.90;57.80;;;;;;4427892;32;20204;-69
2022/02/28 10:17:55;;;;;;;6.40;2.57;;;12.00;57.80;;;;;;4426004;32;20178;-71
2022/02/28 10:20:43;;;;;;;6.37;2.60;;;12.20;56.70;;;;;;4425710;32;20190;-71
2022/02/28 10:23:12;;;;;;;5.13;2.63;;;12.30;55.30;;;;;;4438280;32;20182;-72
2022/02/28 10:25:45;;;;;;;6.33;2.20;;;12.60;55.70;;;;;;4455533;32;20154;-70
2022/02/28 10:28:23;;;;;;;5.20;2.50;;;12.90;54.50;;;;;;4442529;32;20208;-71
2022/02/28 10:30:51;;;;;;;7.63;2.50;;;12.80;53.20;;;;;;4441932;32;20185;-69
2022/02/28 10:33:19;;;;;;;5.83;2.53;;;13.10;52.50;;;;;;4440985;32;20585;-69
2022/02/28 10:36:00;;;;;;;4.33;2.23;;;13.30;51.50;;;;;;4441963;32;20205;-68
2022/02/28 10:38:30;;;;;;;5.13;2.00;;;13.40;49.40;;;;;;4440910;32;20192;-69
2022/02/28 10:40:58;;;;;;;3.57;2.03;;;13.50;48.50;;;;;;4440779;32;20507;-68
2022/02/28 10:43:30;;;;;;;5.30;2.30;;;13.70;49.10;;;;;;4441016;32;20190;-68
2022/02/28 10:46:11;;;;;;;3.90;2.10;;;13.80;49.10;;;;;;4442232;32;20177;-69
2022/02/28 10:48:38;;;;;;;4.53;2.20;;;13.80;48.40;;;;;;4440982;32;20239;-68
2022/02/28 10:51:15;;;;;;;3.43;2.00;;;13.90;47.70;;;;;;4455556;32;20169;-67
2022/02/28 10:53:42;;;;;;;3.77;2.10;;;13.80;47.80;;;;;;4427067;32;20200;-67
2022/02/28 10:56:09;;;;;;;4.27;2.00;;;13.90;46.60;;;;;;4424888;32;20244;-66
2022/02/28 10:58:36;;;;;;;5.63;1.80;;;14.30;45.90;;;;;;4440894;32;20150;-67
2022/02/28 11:01:08;;;;;;;3.20;1.70;;;14.50;45.50;;;;;;4424833;32;20179;-68
2022/02/28 11:03:47;;;;;;;3.23;1.70;;;14.60;45.00;;;;;;4447860;32;20459;-66
2022/02/28 11:06:24;;;;;;;3.07;1.70;;;14.60;43.20;;;;;;4425141;32;20229;-67
2022/02/28 11:08:52;;;;;;;3.40;1.80;;;14.50;42.60;;;;;;4439248;32;20181;-68
2022/02/28 11:11:19;;;;;;;4.67;1.90;;;14.60;42.20;;;;;;4425559;32;20202;-67
2022/02/28 11:13:46;;;;;;;2.23;1.33;;;14.90;42.00;;;;;;4425122;32;20190;-67
2022/02/28 11:16:13;;;;;;;2.33;1.37;;;15.10;40.60;;;;;;4428083;32;20213;-64
2022/02/28 11:18:42;;;;;;;3.63;1.60;;;15.20;39.80;;;;;;4441744;32;20497;-65
2022/02/28 11:21:09;;;;;;;3.57;1.40;;;15.60;39.60;;;;;;4456299;32;20193;-68
2022/02/28 11:23:37;;;;;;;3.00;1.20;;;15.50;38.60;;;;;;4440480;32;20509;-66
2022/02/28 11:26:05;;;;;;;4.43;1.70;;;15.30;38.10;;;;;;4440036;32;20241;-66
2022/02/28 11:28:32;;;;;;;2.83;1.37;;;15.00;37.70;;;;;;4454709;32;20429;-68
2022/02/28 11:31:06;;;;;;;9.77;1.50;;;14.90;37.60;;;;;;4454762;32;20468;-64
2022/02/28 11:33:33;;;;;;;2.83;1.40;;;14.60;37.50;;;;;;4455354;32;20207;-67
2022/02/28 11:36:00;;;;;;;3.07;1.30;;;14.40;37.60;;;;;;4441858;32;20194;-67
2022/02/28 11:38:30;;;;;;;4.17;1.50;;;14.70;37.90;;;;;;4441716;32;20377;-68
2022/02/28 11:41:02;;;;;;;3.47;1.30;;;14.90;37.10;;;;;;4439983;32;20193;-67
2022/02/28 11:43:34;;;;;;;1.90;1.10;;;14.80;38.00;;;;;;4440156;32;20224;-68
2022/02/28 11:46:10;;;;;;;1.80;1.07;;;14.60;36.30;;;;;;4455288;32;20454;-66
2022/02/28 11:48:46;;;;;;;1.63;1.10;;;15.10;35.50;;;;;;4441773;32;20181;-67
2022/02/28 11:51:29;;;;;;;2.37;1.27;;;15.30;34.70;;;;;;4440547;32;20435;-66
2022/02/28 11:53:59;;;;;;;3.77;1.40;;;15.70;35.00;;;;;;4439777;32;20423;-67
2022/02/28 11:56:34;;;;;;;4.17;1.37;;;16.40;34.60;;;;;;4455868;32;20150;-67
2022/02/28 11:59:13;;;;;;;3.23;1.30;;;17.20;34.40;;;;;;4441372;32;20245;-68
2022/02/28 12:01:59;;;;;;;2.77;1.40;;;17.60;34.00;;;;;;4455908;32;20332;-65
2022/02/28 12:04:32;;;;;;;2.73;1.50;;;18.10;33.60;;;;;;4441555;32;20177;-68
2022/02/28 12:07:05;;;;;;;2.80;1.40;;;18.80;32.90;;;;;;4439917;32;20190;-68
2022/02/28 12:09:32;;;;;;;2.37;1.50;;;18.50;32.90;;;;;;4450226;32;20162;-68
2022/02/28 12:12:27;;;;;;;3.27;1.50;;;18.70;32.50;;;;;;4440558;32;20190;-69
2022/02/28 12:14:59;;;;;;;2.47;1.43;;;18.90;32.10;;;;;;4454853;32;20406;-68
2022/02/28 12:17:44;;;;;;;3.87;1.53;;;18.70;32.10;;;;;;4431478;32;20185;-67
2022/02/28 12:20:26;;;;;;;3.17;1.63;;;19.20;31.90;;;;;;4424948;32;20201;-65
2022/02/28 12:23:07;;;;;;;2.47;1.57;;;19.40;31.80;;;;;;4428472;32;20189;-68
2022/02/28 12:25:53;;;;;;;3.50;1.50;;;19.50;31.50;;;;;;4434147;32;20189;-67
2022/02/28 12:28:28;;;;;;;4.43;1.50;;;19.70;31.30;;;;;;4442925;32;20216;-67
2022/02/28 12:31:12;;;;;;;5.07;1.50;;;20.20;31.20;;;;;;4443361;32;20181;-68
2022/02/28 12:33:41;;;;;;;2.33;1.70;;;20.40;30.40;;;;;;4442210;32;20173;-67
2022/02/28 12:36:15;;;;;;;3.53;1.80;;;20.20;30.80;;;;;;4442511;32;20178;-66
2022/02/28 12:38:50;;;;;;;4.43;1.80;;;20.60;31.00;;;;;;4442709;32;20220;-66
2022/02/28 12:41:23;;;;;;;4.20;2.00;;;21.00;30.60;;;;;;4442587;32;20397;-67
2022/02/28 12:43:53;;;;;;;3.30;1.70;;;21.50;30.10;;;;;;4427518;32;20213;-67
2022/02/28 12:46:26;;;;;;;3.87;1.93;;;20.90;29.90;;;;;;4427423;32;20217;-68